createdAt,value
2022-09-12T00:01:46.023Z,3.95
2022-09-12T00:04:33.191Z,5.50
2022-09-12T00:07:20.228Z,9.10
2022-09-12T00:10:09.654Z,7.05
2022-09-12T00:12:56.991Z,4.53
2022-09-12T00:15:46.171Z,7.40
2022-09-12T00:18:33.996Z,4.43
2022-09-12T00:21:22.306Z,7.63
2022-09-12T00:24:10.415Z,6.88
2022-09-12T00:26:58.627Z,4.80
2022-09-12T00:29:45.888Z,9.00
2022-09-12T00:32:32.855Z,5.15
2022-09-12T00:35:19.838Z,4.65
2022-09-12T00:38:06.846Z,5.03
2022-09-12T00:40:53.646Z,5.00
2022-09-12T00:43:44.519Z,7.18
2022-09-12T00:46:37.862Z,6.50
2022-09-12T00:49:28.771Z,6.22
2022-09-12T00:52:22.109Z,4.20
2022-09-12T00:55:13.995Z,4.20
2022-09-12T00:58:03.951Z,4.03
2022-09-12T01:00:53.605Z,4.03
2022-09-12T01:03:40.481Z,6.45
2022-09-12T01:06:29.834Z,5.68
2022-09-12T01:09:21.673Z,6.40
2022-09-12T01:12:09.333Z,4.60
2022-09-12T01:14:56.661Z,6.47
2022-09-12T01:18:03.881Z,8.82
2022-09-12T01:21:07.274Z,8.23
2022-09-12T01:24:15.554Z,5.82
2022-09-12T01:27:21.518Z,6.05
2022-09-12T01:30:38.158Z,5.03
2022-09-12T01:33:34.063Z,8.13
2022-09-12T01:36:36.045Z,7.50
2022-09-12T01:39:31.413Z,7.93
2022-09-12T01:42:25.746Z,5.65
2022-09-12T01:45:18.379Z,7.47
2022-09-12T01:48:15.264Z,7.40
2022-09-12T01:51:08.878Z,9.65
2022-09-12T01:54:04.182Z,6.22
2022-09-12T01:56:56.431Z,8.13
2022-09-12T01:59:48.400Z,6.95
2022-09-12T02:02:39.728Z,4.40
2022-09-12T02:05:33.261Z,4.80
2022-09-12T02:08:25.199Z,3.85
2022-09-12T02:11:14.333Z,5.50
2022-09-12T02:14:06.132Z,5.32
2022-09-12T02:16:58.109Z,6.35
2022-09-12T02:19:51.554Z,4.35
2022-09-12T02:22:41.074Z,6.30
2022-09-12T02:25:30.673Z,5.65
2022-09-12T02:28:24.638Z,4.97
2022-09-12T02:31:21.825Z,7.40
2022-09-12T02:34:15.160Z,8.52
2022-09-12T02:37:11.996Z,7.65
2022-09-12T02:40:00.171Z,5.68
2022-09-12T02:42:47.379Z,6.97
2022-09-12T02:45:37.752Z,5.85
2022-09-12T02:48:29.160Z,6.32
2022-09-12T02:51:20.307Z,7.55
2022-09-12T02:54:11.947Z,7.47
2022-09-12T02:56:58.832Z,4.15
2022-09-12T02:59:46.948Z,8.07
2022-09-12T03:02:56.618Z,3.88
2022-09-12T03:05:52.709Z,7.78
2022-09-12T03:09:00.613Z,5.60
2022-09-12T03:12:04.689Z,8.07
2022-09-12T03:15:07.351Z,4.30
2022-09-12T03:18:09.398Z,7.00
2022-09-12T03:21:04.068Z,7.72
2022-09-12T03:24:02.055Z,6.88
2022-09-12T03:26:52.715Z,4.53
2022-09-12T03:29:41.864Z,9.02
2022-09-12T03:32:45.235Z,9.85
2022-09-12T03:35:33.927Z,8.98
2022-09-12T03:38:21.219Z,4.55
2022-09-12T03:41:08.489Z,5.85
2022-09-12T03:43:56.999Z,7.35
2022-09-12T03:46:44.266Z,4.03
2022-09-12T03:49:31.296Z,10.15
2022-09-12T03:52:19.969Z,7.47
2022-09-12T03:55:07.799Z,9.25
2022-09-12T03:57:55.043Z,7.90
2022-09-12T04:00:43.128Z,6.85
2022-09-12T04:03:30.120Z,9.68
2022-09-12T04:06:20.033Z,10.02
2022-09-12T04:09:08.371Z,6.35
2022-09-12T04:11:55.622Z,6.90
2022-09-12T04:14:42.752Z,8.20
2022-09-12T04:17:29.993Z,4.15
2022-09-12T04:20:17.055Z,9.90
2022-09-12T04:23:04.305Z,3.75
2022-09-12T04:26:01.735Z,4.60
2022-09-12T04:28:49.326Z,4.22
2022-09-12T04:31:36.480Z,3.38
2022-09-12T04:34:23.623Z,6.78
2022-09-12T04:37:11.945Z,5.07
2022-09-12T04:39:59.569Z,6.22
2022-09-12T04:42:47.669Z,4.95
2022-09-12T04:45:34.855Z,9.40
2022-09-12T04:48:21.650Z,5.72
2022-09-12T04:51:10.559Z,6.05
2022-09-12T04:53:59.590Z,5.35
2022-09-12T04:56:48.769Z,8.05
2022-09-12T04:59:36.954Z,5.20
2022-09-12T05:02:24.202Z,8.13
2022-09-12T05:05:11.919Z,7.47
2022-09-12T05:07:59.159Z,4.93
2022-09-12T05:10:45.991Z,7.53
2022-09-12T05:13:34.319Z,5.25
2022-09-12T05:16:23.775Z,8.68
2022-09-12T05:19:12.950Z,6.85
2022-09-12T05:22:00.431Z,4.30
2022-09-12T05:24:53.984Z,5.75
2022-09-12T05:27:41.125Z,5.97
2022-09-12T05:30:28.074Z,6.38
2022-09-12T05:33:16.624Z,5.78
2022-09-12T05:36:04.737Z,7.28
2022-09-12T05:38:52.996Z,6.75
2022-09-12T05:41:40.063Z,6.80
2022-09-12T05:44:27.117Z,5.18
2022-09-12T05:47:14.140Z,7.22
2022-09-12T05:50:02.914Z,8.82
2022-09-12T05:52:50.825Z,5.57
2022-09-12T05:55:38.010Z,6.10
2022-09-12T05:58:25.051Z,10.57
2022-09-12T06:01:14.939Z,8.73
2022-09-12T06:04:05.362Z,9.23
2022-09-12T06:06:54.001Z,8.82
2022-09-12T06:09:40.998Z,9.00
2022-09-12T06:12:30.050Z,8.82
2022-09-12T06:15:18.739Z,11.07
2022-09-12T06:18:06.118Z,8.55
2022-09-12T06:20:53.209Z,13.65
2022-09-12T06:23:42.431Z,10.70
2022-09-12T06:26:31.011Z,10.90
2022-09-12T06:29:19.624Z,14.90
2022-09-12T06:32:07.098Z,7.82
2022-09-12T06:34:54.108Z,8.43
2022-09-12T06:37:42.197Z,10.30
2022-09-12T06:40:31.255Z,9.85
2022-09-12T06:43:20.307Z,11.15
2022-09-12T06:46:09.235Z,10.13
2022-09-12T06:48:59.453Z,13.88
2022-09-12T06:51:46.697Z,13.55
2022-09-12T06:54:33.854Z,10.30
2022-09-12T06:57:22.254Z,8.98
2022-09-12T07:00:11.154Z,8.90
2022-09-12T07:02:58.029Z,14.88
2022-09-12T07:05:45.171Z,8.23
2022-09-12T07:08:32.368Z,16.85
2022-09-12T07:11:21.477Z,9.95
2022-09-12T07:14:14.307Z,5.13
2022-09-12T07:17:01.224Z,10.55
2022-09-12T07:19:48.049Z,15.70
2022-09-12T07:22:34.986Z,8.07
2022-09-12T07:25:22.343Z,10.60
2022-09-12T07:28:09.601Z,9.52
2022-09-12T07:30:58.256Z,7.35
2022-09-12T07:33:45.679Z,11.68
2022-09-12T07:36:33.404Z,10.00
2022-09-12T07:39:21.434Z,6.30
2022-09-12T07:42:08.435Z,9.07
2022-09-12T07:44:55.613Z,4.00
2022-09-12T07:47:44.618Z,4.03
2022-09-12T07:50:32.969Z,4.43
2022-09-12T07:53:19.702Z,5.82
2022-09-12T07:56:07.839Z,4.55
2022-09-12T07:58:56.957Z,5.80
2022-09-12T08:01:44.661Z,7.93
2022-09-12T08:04:33.139Z,3.95
2022-09-12T08:07:20.375Z,6.47
2022-09-12T08:10:09.259Z,3.85
2022-09-12T08:12:56.711Z,4.97
2022-09-12T08:15:43.522Z,5.70
2022-09-12T08:18:32.953Z,3.67
2022-09-12T08:21:23.154Z,3.58
2022-09-12T08:24:13.742Z,3.92
2022-09-12T08:27:00.822Z,5.45
2022-09-12T08:29:47.868Z,3.45
2022-09-12T08:32:36.476Z,3.72
2022-09-12T08:35:23.646Z,4.90
2022-09-12T08:38:12.451Z,2.92
2022-09-12T08:41:05.538Z,3.03
2022-09-12T08:49:40.969Z,3.00
2022-09-12T08:52:38.437Z,3.08
2022-09-12T08:55:34.928Z,3.00
2022-09-12T08:58:24.790Z,3.97
2022-09-12T09:01:22.059Z,3.50
2022-09-12T09:04:26.913Z,3.90
2022-09-12T09:07:28.063Z,3.20
2022-09-12T09:10:25.528Z,2.78
2022-09-12T09:13:43.090Z,4.22
2022-09-12T09:16:32.991Z,4.55
2022-09-12T09:19:23.605Z,3.15
2022-09-12T09:22:15.375Z,5.28
2022-09-12T09:25:07.586Z,4.95
2022-09-12T09:27:59.864Z,6.60
2022-09-12T09:30:48.362Z,3.33
2022-09-12T09:33:36.558Z,2.40
2022-09-12T09:36:33.069Z,2.58
2022-09-12T09:39:31.608Z,3.25
2022-09-12T09:42:29.048Z,2.55
2022-09-12T09:45:19.971Z,3.20
2022-09-12T09:48:19.560Z,4.13
2022-09-12T09:51:10.024Z,2.47
2022-09-12T09:54:02.195Z,2.10
2022-09-12T09:59:37.474Z,2.08
2022-09-12T10:02:25.014Z,3.75
2022-09-12T10:05:18.782Z,2.45
2022-09-12T10:08:08.237Z,1.88
2022-09-12T10:10:59.868Z,3.30
2022-09-12T10:13:57.139Z,4.18
2022-09-12T10:16:53.606Z,3.15
2022-09-12T10:19:41.283Z,2.83
2022-09-12T10:22:31.470Z,2.85
2022-09-12T10:25:20.700Z,3.45
2022-09-12T10:28:22.100Z,5.70
2022-09-12T10:31:12.009Z,1.98
2022-09-12T10:34:01.245Z,2.10
2022-09-12T10:36:48.915Z,3.65
2022-09-12T10:39:39.325Z,3.08
2022-09-12T10:42:44.082Z,5.05
2022-09-12T10:45:31.279Z,3.67
2022-09-12T10:48:32.017Z,2.85
2022-09-12T10:51:29.491Z,2.88
2022-09-12T10:54:19.289Z,2.65
2022-09-12T10:57:25.687Z,3.40
2022-09-12T11:00:17.682Z,3.33
2022-09-12T11:03:16.748Z,4.00
2022-09-12T11:06:03.833Z,2.85
2022-09-12T11:09:02.626Z,4.32
2022-09-12T11:12:03.486Z,2.50
2022-09-12T11:15:04.267Z,4.13
2022-09-12T11:17:58.002Z,2.88
2022-09-12T11:20:58.436Z,3.17
2022-09-12T11:24:09.134Z,3.30
2022-09-12T11:27:10.705Z,3.20
2022-09-12T11:30:02.807Z,3.33
2022-09-12T11:33:02.633Z,4.13
2022-09-12T11:35:55.284Z,2.60
2022-09-12T11:38:50.408Z,3.00
2022-09-12T11:41:42.313Z,2.75
2022-09-12T11:44:40.259Z,3.90
2022-09-12T11:47:32.342Z,2.65
2022-09-12T11:50:26.459Z,2.83
2022-09-12T11:53:20.265Z,2.33
2022-09-12T11:56:15.253Z,3.08
2022-09-12T11:59:12.005Z,2.20
2022-09-12T12:02:01.506Z,2.88
2022-09-12T12:05:03.999Z,4.05
2022-09-12T12:07:55.759Z,3.72
2022-09-12T12:10:46.082Z,2.83
2022-09-12T12:13:50.103Z,2.55
2022-09-12T12:16:41.150Z,2.85
2022-09-12T12:19:35.099Z,3.85
2022-09-12T12:22:25.442Z,3.20
2022-09-12T12:25:30.002Z,2.33
2022-09-12T12:28:52.386Z,3.25
2022-09-12T12:32:27.199Z,3.92
2022-09-12T12:35:46.435Z,2.35
2022-09-12T12:38:33.077Z,2.90
2022-09-12T12:41:49.906Z,2.38
2022-09-12T12:44:55.157Z,2.10
2022-09-12T12:47:47.438Z,2.08
2022-09-12T12:50:34.624Z,4.17
2022-09-12T12:53:27.903Z,3.03
2022-09-12T12:56:31.472Z,4.25
2022-09-12T12:59:23.013Z,12.90
2022-09-12T13:02:22.846Z,2.35
2022-09-12T13:05:22.113Z,2.22
2022-09-12T13:08:12.016Z,3.13
2022-09-12T13:11:03.198Z,7.05
2022-09-12T13:13:54.092Z,2.55
2022-09-12T13:20:30.229Z,5.20
2022-09-12T13:23:27.847Z,2.45
2022-09-12T13:26:23.062Z,4.50
2022-09-12T13:29:13.806Z,3.25
2022-09-12T13:32:09.121Z,3.05
2022-09-12T13:35:09.482Z,2.63
2022-09-12T13:38:05.682Z,2.10
2022-09-12T13:41:14.583Z,2.05
2022-09-12T13:44:03.813Z,3.10
2022-09-12T13:46:52.033Z,2.85
2022-09-12T13:49:41.599Z,1.83
2022-09-12T13:52:33.903Z,2.13
2022-09-12T13:55:31.490Z,5.55
2022-09-12T13:58:24.018Z,2.45
2022-09-12T14:01:16.186Z,1.98
2022-09-12T14:04:25.721Z,2.53
2022-09-12T14:07:17.210Z,2.03
2022-09-12T14:10:03.558Z,2.45
2022-09-12T14:12:52.969Z,1.58
2022-09-12T14:15:41.340Z,2.10
2022-09-12T14:18:32.625Z,3.22
2022-09-12T14:21:34.064Z,2.58
2022-09-12T14:24:24.633Z,2.67
2022-09-12T14:27:12.744Z,3.60
2022-09-12T14:30:09.150Z,2.08
2022-09-12T14:33:25.976Z,2.47
2022-09-12T14:36:18.738Z,4.80
2022-09-12T14:39:08.038Z,1.98
2022-09-12T14:42:06.841Z,2.75
2022-09-12T14:44:58.699Z,5.55
2022-09-12T14:47:51.524Z,3.05
2022-09-12T14:50:39.503Z,2.70
2022-09-12T14:53:33.272Z,4.22
2022-09-12T14:56:23.586Z,1.67
2022-09-12T14:59:28.856Z,2.22
2022-09-12T15:02:23.494Z,2.30
2022-09-12T15:05:23.360Z,1.33
2022-09-12T15:08:16.618Z,2.88
2022-09-12T15:13:50.769Z,3.55
2022-09-12T15:16:37.729Z,2.67
2022-09-12T15:19:24.559Z,2.33
2022-09-12T15:22:14.503Z,2.20
2022-09-12T15:25:02.243Z,3.50
2022-09-12T15:27:52.371Z,2.30
2022-09-12T15:30:39.194Z,2.70
2022-09-12T15:33:26.961Z,2.72
2022-09-12T15:36:17.754Z,4.32
2022-09-12T15:39:06.444Z,3.08
2022-09-12T15:41:54.435Z,5.53
2022-09-12T15:44:41.978Z,3.45
2022-09-12T15:47:28.988Z,4.53
2022-09-12T15:50:16.157Z,2.90
2022-09-12T15:53:03.359Z,2.10
2022-09-12T15:55:51.628Z,1.92
2022-09-12T15:58:54.714Z,5.82
2022-09-12T16:01:45.392Z,2.22
2022-09-12T16:04:32.560Z,4.63
2022-09-12T16:07:19.414Z,2.00
2022-09-12T16:10:07.270Z,1.65
2022-09-12T16:12:55.724Z,4.85
2022-09-12T16:15:42.984Z,2.58
2022-09-12T16:18:30.272Z,1.52
2022-09-12T16:21:17.594Z,1.85
2022-09-12T16:24:04.906Z,4.38
2022-09-12T16:26:52.196Z,2.55
2022-09-12T16:29:40.783Z,2.83
2022-09-12T16:32:28.318Z,2.53
2022-09-12T16:35:15.590Z,2.25
2022-09-12T16:38:02.567Z,2.90
2022-09-12T16:40:49.413Z,2.33
2022-09-12T16:43:37.749Z,2.35
2022-09-12T16:46:28.772Z,3.13
2022-09-12T16:49:15.873Z,6.13
2022-09-12T16:52:03.190Z,3.63
2022-09-12T16:54:50.484Z,4.93
2022-09-12T16:57:37.908Z,2.72
2022-09-12T17:00:25.029Z,3.63
2022-09-12T17:03:13.914Z,3.38
2022-09-12T17:06:01.351Z,3.97
2022-09-12T17:08:50.233Z,2.75
2022-09-12T17:11:40.098Z,3.85
2022-09-12T17:14:27.269Z,2.80
2022-09-12T17:17:14.602Z,3.53
2022-09-12T17:20:03.290Z,3.58
2022-09-12T17:22:50.354Z,3.25
2022-09-12T17:25:37.271Z,3.03
2022-09-12T17:28:24.476Z,3.63
2022-09-12T17:31:13.611Z,3.20
2022-09-12T17:34:01.556Z,4.05
2022-09-12T17:36:49.874Z,5.18
2022-09-12T17:39:36.844Z,4.55
2022-09-12T17:42:24.589Z,4.00
2022-09-12T17:45:16.386Z,5.28
2022-09-12T17:48:06.359Z,3.13
2022-09-12T17:50:53.522Z,5.38
2022-09-12T17:53:42.641Z,3.83
2022-09-12T17:56:31.593Z,3.05
2022-09-12T17:59:21.547Z,3.42
2022-09-12T18:02:13.247Z,5.22
2022-09-12T18:05:00.523Z,7.10
2022-09-12T18:07:47.795Z,5.78
2022-09-12T18:10:35.957Z,8.50
2022-09-12T18:13:23.125Z,9.55
2022-09-12T18:16:11.827Z,6.10
2022-09-12T18:19:01.746Z,7.05
2022-09-12T18:21:48.648Z,6.07
2022-09-12T18:24:35.727Z,8.02
2022-09-12T18:27:23.920Z,8.02
2022-09-12T18:30:21.770Z,12.05
2022-09-12T18:33:09.450Z,5.65
2022-09-12T18:35:56.820Z,5.90
2022-09-12T18:38:45.011Z,6.03
2022-09-12T18:41:32.382Z,6.63
2022-09-12T18:44:21.217Z,9.43
2022-09-12T18:47:09.763Z,8.20
2022-09-12T18:49:57.112Z,9.13
2022-09-12T18:52:44.153Z,7.93
2022-09-12T18:55:33.422Z,9.25
2022-09-12T18:58:20.424Z,8.02
2022-09-12T19:01:13.915Z,8.15
2022-09-12T19:04:04.760Z,6.18
2022-09-12T19:06:51.890Z,11.13
2022-09-12T19:09:39.097Z,8.25
2022-09-12T19:12:26.159Z,11.95
2022-09-12T19:15:13.080Z,6.65
2022-09-12T19:18:01.829Z,8.40
2022-09-12T19:20:52.650Z,7.25
2022-09-12T19:23:39.530Z,8.93
2022-09-12T19:26:27.451Z,10.80
2022-09-12T19:29:16.621Z,8.68
2022-09-12T19:32:04.096Z,10.10
2022-09-12T19:34:52.465Z,7.30
2022-09-12T19:37:39.658Z,8.98
2022-09-12T19:40:28.111Z,8.68
2022-09-12T19:43:15.169Z,7.05
2022-09-12T19:46:03.561Z,9.68
2022-09-12T19:48:52.359Z,8.35
2022-09-12T19:51:40.901Z,6.70
2022-09-12T19:54:27.702Z,8.82
2022-09-12T19:57:15.061Z,7.93
2022-09-12T20:00:02.179Z,9.57
2022-09-12T20:02:54.274Z,7.97
2022-09-12T20:05:42.916Z,6.82
2022-09-12T20:08:31.606Z,7.30
2022-09-12T20:11:20.541Z,9.32
2022-09-12T20:14:07.959Z,9.70
2022-09-12T20:16:55.267Z,9.07
2022-09-12T20:19:42.496Z,6.57
2022-09-12T20:22:29.555Z,8.32
2022-09-12T20:25:20.289Z,6.85
2022-09-12T20:28:07.540Z,8.68
2022-09-12T20:30:54.915Z,7.63
2022-09-12T20:33:42.585Z,9.85
2022-09-12T20:36:29.803Z,7.45
2022-09-12T20:39:18.982Z,9.70
2022-09-12T20:42:07.647Z,8.27
2022-09-12T20:44:54.559Z,7.28
2022-09-12T20:47:41.514Z,7.18
2022-09-12T20:50:28.342Z,7.20
2022-09-12T20:53:15.926Z,8.57
2022-09-12T20:56:03.413Z,10.00
2022-09-12T20:58:52.525Z,10.95
2022-09-12T21:01:40.102Z,9.45
2022-09-12T21:04:28.129Z,9.07
2022-09-12T21:07:14.945Z,10.60
2022-09-12T21:10:01.818Z,7.80
2022-09-12T21:12:49.050Z,9.68
2022-09-12T21:15:38.920Z,12.35
2022-09-12T21:18:26.111Z,11.18
2022-09-12T21:21:15.370Z,12.15
2022-09-12T21:24:03.891Z,9.68
2022-09-12T21:26:51.085Z,16.50
2022-09-12T21:29:38.525Z,10.07
2022-09-12T21:32:26.915Z,12.63
2022-09-12T21:35:14.393Z,10.73
2022-09-12T21:38:01.602Z,8.48
2022-09-12T21:40:48.943Z,8.98
2022-09-12T21:43:36.790Z,7.57
2022-09-12T21:46:23.878Z,7.75
2022-09-12T21:49:12.088Z,7.95
2022-09-12T21:51:58.906Z,14.43
2022-09-12T21:54:45.775Z,7.05
2022-09-12T21:57:32.878Z,7.43
2022-09-12T22:00:19.938Z,8.98
2022-09-12T22:03:06.820Z,6.90
2022-09-12T22:05:58.460Z,9.55
2022-09-12T22:08:45.587Z,6.95
2022-09-12T22:11:32.499Z,8.68
2022-09-12T22:14:19.793Z,8.38
2022-09-12T22:17:08.302Z,5.88
2022-09-12T22:19:55.095Z,9.20
2022-09-12T22:22:57.600Z,8.90
2022-09-12T22:25:43.807Z,7.43
2022-09-12T22:28:29.425Z,6.43
2022-09-12T22:31:16.174Z,8.43
2022-09-12T22:34:03.516Z,8.25
2022-09-12T22:36:50.800Z,7.90
2022-09-12T22:39:39.484Z,10.43
2022-09-12T22:42:26.649Z,6.82
2022-09-12T22:45:13.905Z,6.03
2022-09-12T22:48:01.353Z,7.15
2022-09-12T22:50:49.426Z,7.88
2022-09-12T22:53:37.783Z,8.75
2022-09-12T22:56:26.289Z,9.30
2022-09-12T22:59:13.630Z,5.88
2022-09-12T23:02:00.472Z,7.18
2022-09-12T23:04:48.554Z,9.40
2022-09-12T23:07:35.801Z,5.43
2022-09-12T23:10:23.173Z,8.05
2022-09-12T23:13:11.824Z,5.50
2022-09-12T23:16:00.462Z,5.43
2022-09-12T23:18:47.752Z,5.35
2022-09-12T23:21:34.947Z,7.53
2022-09-12T23:24:22.137Z,6.65
2022-09-12T23:27:09.559Z,6.93
2022-09-12T23:29:57.767Z,6.82
2022-09-12T23:32:44.837Z,5.93
2022-09-12T23:35:31.766Z,9.02
2022-09-12T23:38:18.598Z,6.05
2022-09-12T23:41:05.880Z,6.22
2022-09-12T23:43:53.300Z,8.13
2022-09-12T23:46:41.610Z,6.53
2022-09-12T23:49:28.750Z,7.72
2022-09-12T23:52:15.580Z,4.88
2022-09-12T23:55:02.562Z,5.47
2022-09-12T23:57:49.424Z,6.00
